sensor_id;sensor_type;location;lat;lon;timestamp;P1;durP1;ratioP1;P2;durP2;ratioP2
22007;SDS011;11168;56.976;24.168;2023-04-03T00:00:32;1.40;;;0.60;;
22007;SDS011;11168;56.976;24.168;2023-04-03T00:03:00;4.53;;;0.82;;
22007;SDS011;11168;56.976;24.168;2023-04-03T00:05:27;2.70;;;0.70;;
22007;SDS011;11168;56.976;24.168;2023-04-03T00:07:55;1.70;;;0.60;;
22007;SDS011;11168;56.976;24.168;2023-04-03T00:10:22;2.00;;;0.63;;
22007;SDS011;11168;56.976;24.168;2023-04-03T00:12:49;1.13;;;0.63;;
22007;SDS011;11168;56.976;24.168;2023-04-03T00:15:17;2.60;;;0.70;;
22007;SDS011;11168;56.976;24.168;2023-04-03T00:17:44;1.92;;;0.80;;
22007;SDS011;11168;56.976;24.168;2023-04-03T00:20:12;1.95;;;0.90;;
22007;SDS011;11168;56.976;24.168;2023-04-03T00:22:39;1.95;;;0.95;;
22007;SDS011;11168;56.976;24.168;2023-04-03T00:25:06;4.30;;;0.90;;
22007;SDS011;11168;56.976;24.168;2023-04-03T00:27:35;2.80;;;0.80;;
22007;SDS011;11168;56.976;24.168;2023-04-03T00:30:03;2.38;;;0.85;;
22007;SDS011;11168;56.976;24.168;2023-04-03T00:32:31;3.55;;;0.95;;
22007;SDS011;11168;56.976;24.168;2023-04-03T00:34:58;1.45;;;0.80;;
22007;SDS011;11168;56.976;24.168;2023-04-03T00:37:25;1.58;;;0.70;;
22007;SDS011;11168;56.976;24.168;2023-04-03T00:39:53;2.00;;;0.88;;
22007;SDS011;11168;56.976;24.168;2023-04-03T00:42:20;3.85;;;1.00;;
22007;SDS011;11168;56.976;24.168;2023-04-03T00:47:16;2.45;;;0.80;;
22007;SDS011;11168;56.976;24.168;2023-04-03T00:49:44;2.13;;;0.90;;
22007;SDS011;11168;56.976;24.168;2023-04-03T00:52:14;1.98;;;0.70;;
22007;SDS011;11168;56.976;24.168;2023-04-03T00:54:43;4.35;;;0.90;;
22007;SDS011;11168;56.976;24.168;2023-04-03T00:57:12;2.25;;;0.80;;
22007;SDS011;11168;56.976;24.168;2023-04-03T00:59:45;2.85;;;0.77;;
22007;SDS011;11168;56.976;24.168;2023-04-03T01:02:13;4.15;;;0.93;;
22007;SDS011;11168;56.976;24.168;2023-04-03T01:04:41;2.28;;;0.80;;
22007;SDS011;11168;56.976;24.168;2023-04-03T01:07:14;1.42;;;0.75;;
22007;SDS011;11168;56.976;24.168;2023-04-03T01:09:42;3.70;;;0.85;;
22007;SDS011;11168;56.976;24.168;2023-04-03T01:14:50;1.60;;;0.80;;
22007;SDS011;11168;56.976;24.168;2023-04-03T01:17:34;5.70;;;1.08;;
22007;SDS011;11168;56.976;24.168;2023-04-03T01:22:44;2.50;;;0.80;;
22007;SDS011;11168;56.976;24.168;2023-04-03T01:25:15;2.17;;;0.57;;
22007;SDS011;11168;56.976;24.168;2023-04-03T01:27:42;3.03;;;0.90;;
22007;SDS011;11168;56.976;24.168;2023-04-03T01:30:10;2.60;;;1.08;;
22007;SDS011;11168;56.976;24.168;2023-04-03T01:32:37;1.45;;;0.80;;
22007;SDS011;11168;56.976;24.168;2023-04-03T01:35:06;1.25;;;0.70;;
22007;SDS011;11168;56.976;24.168;2023-04-03T01:37:34;1.08;;;0.70;;
22007;SDS011;11168;56.976;24.168;2023-04-03T01:40:01;2.13;;;0.90;;
22007;SDS011;11168;56.976;24.168;2023-04-03T01:42:29;3.38;;;0.90;;
22007;SDS011;11168;56.976;24.168;2023-04-03T01:44:58;2.78;;;0.88;;
22007;SDS011;11168;56.976;24.168;2023-04-03T01:47:26;4.00;;;0.90;;
22007;SDS011;11168;56.976;24.168;2023-04-03T01:49:53;3.40;;;1.10;;
22007;SDS011;11168;56.976;24.168;2023-04-03T01:52:21;1.63;;;1.00;;
22007;SDS011;11168;56.976;24.168;2023-04-03T01:54:48;1.92;;;0.80;;
22007;SDS011;11168;56.976;24.168;2023-04-03T01:57:16;1.52;;;0.70;;
22007;SDS011;11168;56.976;24.168;2023-04-03T01:59:44;3.33;;;1.05;;
22007;SDS011;11168;56.976;24.168;2023-04-03T02:02:11;2.28;;;0.90;;
22007;SDS011;11168;56.976;24.168;2023-04-03T02:04:40;1.52;;;0.80;;
22007;SDS011;11168;56.976;24.168;2023-04-03T02:07:08;1.73;;;0.90;;
22007;SDS011;11168;56.976;24.168;2023-04-03T02:09:35;3.08;;;0.90;;
22007;SDS011;11168;56.976;24.168;2023-04-03T02:12:02;0.98;;;0.90;;
22007;SDS011;11168;56.976;24.168;2023-04-03T02:14:30;1.42;;;0.80;;
22007;SDS011;11168;56.976;24.168;2023-04-03T02:16:57;1.35;;;0.90;;
22007;SDS011;11168;56.976;24.168;2023-04-03T02:19:24;2.28;;;0.90;;
22007;SDS011;11168;56.976;24.168;2023-04-03T02:21:51;4.40;;;0.95;;
22007;SDS011;11168;56.976;24.168;2023-04-03T02:24:19;1.75;;;1.00;;
22007;SDS011;11168;56.976;24.168;2023-04-03T02:26:46;1.40;;;0.80;;
22007;SDS011;11168;56.976;24.168;2023-04-03T02:29:13;4.13;;;1.10;;
22007;SDS011;11168;56.976;24.168;2023-04-03T02:31:41;4.13;;;1.13;;
22007;SDS011;11168;56.976;24.168;2023-04-03T02:34:08;3.90;;;1.05;;
22007;SDS011;11168;56.976;24.168;2023-04-03T02:36:35;3.72;;;1.00;;
22007;SDS011;11168;56.976;24.168;2023-04-03T02:39:03;2.95;;;1.38;;
22007;SDS011;11168;56.976;24.168;2023-04-03T02:41:31;1.40;;;0.98;;
22007;SDS011;11168;56.976;24.168;2023-04-03T02:44:02;1.17;;;0.95;;
22007;SDS011;11168;56.976;24.168;2023-04-03T02:46:29;3.90;;;1.23;;
22007;SDS011;11168;56.976;24.168;2023-04-03T02:48:57;1.20;;;0.77;;
22007;SDS011;11168;56.976;24.168;2023-04-03T02:51:24;4.13;;;1.17;;
22007;SDS011;11168;56.976;24.168;2023-04-03T02:53:51;3.15;;;1.10;;
22007;SDS011;11168;56.976;24.168;2023-04-03T02:56:19;2.35;;;1.10;;
22007;SDS011;11168;56.976;24.168;2023-04-03T02:58:46;1.27;;;0.93;;
22007;SDS011;11168;56.976;24.168;2023-04-03T03:01:14;2.42;;;0.90;;
22007;SDS011;11168;56.976;24.168;2023-04-03T03:03:41;1.85;;;1.10;;
22007;SDS011;11168;56.976;24.168;2023-04-03T03:06:13;2.08;;;1.10;;
22007;SDS011;11168;56.976;24.168;2023-04-03T03:08:41;2.55;;;1.10;;
22007;SDS011;11168;56.976;24.168;2023-04-03T03:11:08;2.45;;;1.23;;
22007;SDS011;11168;56.976;24.168;2023-04-03T03:13:36;2.17;;;1.02;;
22007;SDS011;11168;56.976;24.168;2023-04-03T03:16:03;4.05;;;1.15;;
22007;SDS011;11168;56.976;24.168;2023-04-03T03:18:31;2.30;;;1.10;;
22007;SDS011;11168;56.976;24.168;2023-04-03T03:20:59;2.75;;;1.17;;
22007;SDS011;11168;56.976;24.168;2023-04-03T03:23:28;3.22;;;1.65;;
22007;SDS011;11168;56.976;24.168;2023-04-03T03:26:00;3.63;;;1.25;;
22007;SDS011;11168;56.976;24.168;2023-04-03T03:28:27;3.60;;;1.30;;
22007;SDS011;11168;56.976;24.168;2023-04-03T03:30:55;3.72;;;1.25;;
22007;SDS011;11168;56.976;24.168;2023-04-03T03:33:22;2.53;;;1.20;;
22007;SDS011;11168;56.976;24.168;2023-04-03T03:35:50;3.95;;;1.50;;
22007;SDS011;11168;56.976;24.168;2023-04-03T03:38:17;3.10;;;1.40;;
22007;SDS011;11168;56.976;24.168;2023-04-03T03:40:44;2.88;;;1.30;;
22007;SDS011;11168;56.976;24.168;2023-04-03T03:43:11;3.17;;;1.45;;
22007;SDS011;11168;56.976;24.168;2023-04-03T03:45:39;2.40;;;1.50;;
22007;SDS011;11168;56.976;24.168;2023-04-03T03:48:08;4.25;;;1.75;;
22007;SDS011;11168;56.976;24.168;2023-04-03T03:50:36;7.00;;;2.60;;
22007;SDS011;11168;56.976;24.168;2023-04-03T03:53:03;6.82;;;2.38;;
22007;SDS011;11168;56.976;24.168;2023-04-03T03:55:31;5.68;;;2.03;;
22007;SDS011;11168;56.976;24.168;2023-04-03T03:57:58;5.25;;;1.80;;
22007;SDS011;11168;56.976;24.168;2023-04-03T04:00:27;6.43;;;2.03;;
22007;SDS011;11168;56.976;24.168;2023-04-03T04:02:54;3.78;;;1.85;;
22007;SDS011;11168;56.976;24.168;2023-04-03T04:05:24;3.15;;;1.70;;
22007;SDS011;11168;56.976;24.168;2023-04-03T04:07:51;5.55;;;1.80;;
22007;SDS011;11168;56.976;24.168;2023-04-03T04:10:19;3.33;;;1.90;;
22007;SDS011;11168;56.976;24.168;2023-04-03T04:12:46;3.30;;;1.77;;
22007;SDS011;11168;56.976;24.168;2023-04-03T04:15:15;5.28;;;1.92;;
22007;SDS011;11168;56.976;24.168;2023-04-03T04:17:43;5.55;;;1.80;;
22007;SDS011;11168;56.976;24.168;2023-04-03T04:20:10;8.00;;;1.27;;
22007;SDS011;11168;56.976;24.168;2023-04-03T04:22:37;3.97;;;1.70;;
22007;SDS011;11168;56.976;24.168;2023-04-03T04:25:05;3.03;;;1.50;;
22007;SDS011;11168;56.976;24.168;2023-04-03T04:27:33;4.72;;;1.50;;
22007;SDS011;11168;56.976;24.168;2023-04-03T04:30:00;4.18;;;2.00;;
22007;SDS011;11168;56.976;24.168;2023-04-03T04:32:28;3.60;;;2.00;;
22007;SDS011;11168;56.976;24.168;2023-04-03T04:34:56;3.55;;;1.83;;
22007;SDS011;11168;56.976;24.168;2023-04-03T04:37:23;4.47;;;1.88;;
22007;SDS011;11168;56.976;24.168;2023-04-03T04:39:51;4.82;;;1.95;;
22007;SDS011;11168;56.976;24.168;2023-04-03T04:42:18;3.70;;;1.73;;
22007;SDS011;11168;56.976;24.168;2023-04-03T04:44:45;2.15;;;1.08;;
22007;SDS011;11168;56.976;24.168;2023-04-03T04:47:13;2.53;;;1.63;;
22007;SDS011;11168;56.976;24.168;2023-04-03T04:49:41;5.88;;;1.55;;
22007;SDS011;11168;56.976;24.168;2023-04-03T04:52:08;4.47;;;1.65;;
22007;SDS011;11168;56.976;24.168;2023-04-03T04:54:35;3.25;;;1.50;;
22007;SDS011;11168;56.976;24.168;2023-04-03T04:57:03;2.75;;;1.30;;
22007;SDS011;11168;56.976;24.168;2023-04-03T04:59:30;4.07;;;1.58;;
22007;SDS011;11168;56.976;24.168;2023-04-03T05:01:57;4.30;;;1.88;;
22007;SDS011;11168;56.976;24.168;2023-04-03T05:04:25;2.35;;;1.30;;
22007;SDS011;11168;56.976;24.168;2023-04-03T05:06:52;2.10;;;1.15;;
22007;SDS011;11168;56.976;24.168;2023-04-03T05:09:19;5.07;;;1.77;;
22007;SDS011;11168;56.976;24.168;2023-04-03T05:11:47;5.00;;;1.90;;
22007;SDS011;11168;56.976;24.168;2023-04-03T05:14:14;6.20;;;1.80;;
22007;SDS011;11168;56.976;24.168;2023-04-03T05:16:41;1.77;;;1.13;;
22007;SDS011;11168;56.976;24.168;2023-04-03T05:19:09;3.05;;;1.23;;
22007;SDS011;11168;56.976;24.168;2023-04-03T05:21:36;4.00;;;1.67;;
22007;SDS011;11168;56.976;24.168;2023-04-03T05:24:03;2.65;;;0.90;;
22007;SDS011;11168;56.976;24.168;2023-04-03T05:26:31;2.65;;;1.45;;
22007;SDS011;11168;56.976;24.168;2023-04-03T05:28:58;2.85;;;1.52;;
22007;SDS011;11168;56.976;24.168;2023-04-03T05:31:26;6.88;;;1.60;;
22007;SDS011;11168;56.976;24.168;2023-04-03T05:33:56;2.20;;;0.90;;
22007;SDS011;11168;56.976;24.168;2023-04-03T05:36:23;3.08;;;1.40;;
22007;SDS011;11168;56.976;24.168;2023-04-03T05:38:52;3.80;;;1.48;;
22007;SDS011;11168;56.976;24.168;2023-04-03T05:41:19;4.75;;;1.25;;
22007;SDS011;11168;56.976;24.168;2023-04-03T05:43:47;7.22;;;1.35;;
22007;SDS011;11168;56.976;24.168;2023-04-03T05:46:15;3.45;;;1.10;;
22007;SDS011;11168;56.976;24.168;2023-04-03T05:48:43;4.20;;;1.48;;
22007;SDS011;11168;56.976;24.168;2023-04-03T05:51:13;3.88;;;1.10;;
22007;SDS011;11168;56.976;24.168;2023-04-03T05:53:41;1.95;;;1.10;;
22007;SDS011;11168;56.976;24.168;2023-04-03T05:56:09;4.07;;;1.23;;
22007;SDS011;11168;56.976;24.168;2023-04-03T05:58:36;6.75;;;1.88;;
22007;SDS011;11168;56.976;24.168;2023-04-03T06:01:04;4.00;;;1.30;;
22007;SDS011;11168;56.976;24.168;2023-04-03T06:03:32;3.15;;;1.40;;
22007;SDS011;11168;56.976;24.168;2023-04-03T06:06:02;2.65;;;1.58;;
22007;SDS011;11168;56.976;24.168;2023-04-03T06:08:29;6.15;;;1.73;;
22007;SDS011;11168;56.976;24.168;2023-04-03T06:10:57;3.70;;;1.90;;
22007;SDS011;11168;56.976;24.168;2023-04-03T06:13:24;5.80;;;1.63;;
22007;SDS011;11168;56.976;24.168;2023-04-03T06:15:51;2.35;;;1.38;;
22007;SDS011;11168;56.976;24.168;2023-04-03T06:18:19;5.00;;;1.35;;
22007;SDS011;11168;56.976;24.168;2023-04-03T06:20:46;5.28;;;1.60;;
22007;SDS011;11168;56.976;24.168;2023-04-03T06:23:14;7.40;;;1.65;;
22007;SDS011;11168;56.976;24.168;2023-04-03T06:25:41;3.47;;;1.58;;
22007;SDS011;11168;56.976;24.168;2023-04-03T06:28:09;4.55;;;1.58;;
22007;SDS011;11168;56.976;24.168;2023-04-03T06:30:36;5.80;;;1.27;;
22007;SDS011;11168;56.976;24.168;2023-04-03T06:33:04;2.20;;;1.02;;
22007;SDS011;11168;56.976;24.168;2023-04-03T06:35:32;3.58;;;1.40;;
22007;SDS011;11168;56.976;24.168;2023-04-03T06:38:01;5.63;;;1.60;;
22007;SDS011;11168;56.976;24.168;2023-04-03T06:40:30;3.65;;;1.20;;
22007;SDS011;11168;56.976;24.168;2023-04-03T06:42:58;2.20;;;1.02;;
22007;SDS011;11168;56.976;24.168;2023-04-03T06:45:25;1.63;;;0.82;;
22007;SDS011;11168;56.976;24.168;2023-04-03T06:47:53;4.00;;;1.25;;
22007;SDS011;11168;56.976;24.168;2023-04-03T06:50:21;5.45;;;1.05;;
22007;SDS011;11168;56.976;24.168;2023-04-03T06:52:49;9.32;;;1.35;;
22007;SDS011;11168;56.976;24.168;2023-04-03T06:55:16;4.28;;;1.30;;
22007;SDS011;11168;56.976;24.168;2023-04-03T06:57:44;3.10;;;0.70;;
22007;SDS011;11168;56.976;24.168;2023-04-03T07:00:11;1.77;;;0.90;;
22007;SDS011;11168;56.976;24.168;2023-04-03T07:02:39;4.00;;;1.40;;
22007;SDS011;11168;56.976;24.168;2023-04-03T07:05:07;3.00;;;1.13;;
22007;SDS011;11168;56.976;24.168;2023-04-03T07:07:35;4.50;;;1.20;;
22007;SDS011;11168;56.976;24.168;2023-04-03T07:10:04;2.28;;;1.40;;
22007;SDS011;11168;56.976;24.168;2023-04-03T07:12:32;5.97;;;1.30;;
22007;SDS011;11168;56.976;24.168;2023-04-03T07:14:59;2.50;;;1.33;;
22007;SDS011;11168;56.976;24.168;2023-04-03T07:17:27;2.95;;;1.40;;
22007;SDS011;11168;56.976;24.168;2023-04-03T07:19:57;4.30;;;1.23;;
22007;SDS011;11168;56.976;24.168;2023-04-03T07:22:24;2.17;;;1.00;;
22007;SDS011;11168;56.976;24.168;2023-04-03T07:24:52;4.50;;;1.42;;
22007;SDS011;11168;56.976;24.168;2023-04-03T07:27:19;6.18;;;1.45;;
22007;SDS011;11168;56.976;24.168;2023-04-03T07:29:46;8.63;;;2.13;;
22007;SDS011;11168;56.976;24.168;2023-04-03T07:32:14;7.32;;;1.52;;
22007;SDS011;11168;56.976;24.168;2023-04-03T07:34:42;2.65;;;1.05;;
22007;SDS011;11168;56.976;24.168;2023-04-03T07:37:09;4.50;;;1.10;;
22007;SDS011;11168;56.976;24.168;2023-04-03T07:39:37;4.78;;;1.15;;
22007;SDS011;11168;56.976;24.168;2023-04-03T07:42:04;2.88;;;1.10;;
22007;SDS011;11168;56.976;24.168;2023-04-03T07:44:31;4.47;;;1.30;;
22007;SDS011;11168;56.976;24.168;2023-04-03T07:47:03;6.25;;;1.45;;
22007;SDS011;11168;56.976;24.168;2023-04-03T07:49:30;4.63;;;1.48;;
22007;SDS011;11168;56.976;24.168;2023-04-03T07:51:59;2.30;;;1.27;;
22007;SDS011;11168;56.976;24.168;2023-04-03T07:54:26;3.25;;;1.30;;
22007;SDS011;11168;56.976;24.168;2023-04-03T07:56:53;2.03;;;1.10;;
22007;SDS011;11168;56.976;24.168;2023-04-03T07:59:21;5.43;;;1.40;;
22007;SDS011;11168;56.976;24.168;2023-04-03T08:01:48;4.15;;;1.33;;
22007;SDS011;11168;56.976;24.168;2023-04-03T08:04:15;5.28;;;1.85;;
22007;SDS011;11168;56.976;24.168;2023-04-03T08:06:42;4.53;;;1.60;;
22007;SDS011;11168;56.976;24.168;2023-04-03T08:09:13;3.10;;;1.55;;
22007;SDS011;11168;56.976;24.168;2023-04-03T08:11:41;3.78;;;1.75;;
22007;SDS011;11168;56.976;24.168;2023-04-03T08:14:08;4.60;;;1.20;;
22007;SDS011;11168;56.976;24.168;2023-04-03T08:16:42;2.92;;;1.40;;
22007;SDS011;11168;56.976;24.168;2023-04-03T08:19:09;3.75;;;1.38;;
22007;SDS011;11168;56.976;24.168;2023-04-03T08:21:50;1.92;;;0.95;;
22007;SDS011;11168;56.976;24.168;2023-04-03T08:24:17;4.80;;;1.45;;
22007;SDS011;11168;56.976;24.168;2023-04-03T08:26:44;4.22;;;1.10;;
22007;SDS011;11168;56.976;24.168;2023-04-03T08:29:12;5.40;;;1.20;;
22007;SDS011;11168;56.976;24.168;2023-04-03T08:31:39;4.72;;;1.30;;
22007;SDS011;11168;56.976;24.168;2023-04-03T08:34:07;3.15;;;1.25;;
22007;SDS011;11168;56.976;24.168;2023-04-03T08:36:34;6.05;;;1.17;;
22007;SDS011;11168;56.976;24.168;2023-04-03T08:39:02;2.40;;;1.30;;
22007;SDS011;11168;56.976;24.168;2023-04-03T08:41:31;2.40;;;1.10;;
22007;SDS011;11168;56.976;24.168;2023-04-03T08:44:12;5.20;;;1.20;;
22007;SDS011;11168;56.976;24.168;2023-04-03T08:49:25;6.35;;;2.22;;
22007;SDS011;11168;56.976;24.168;2023-04-03T08:51:53;9.35;;;1.48;;
22007;SDS011;11168;56.976;24.168;2023-04-03T08:54:24;3.03;;;1.10;;
22007;SDS011;11168;56.976;24.168;2023-04-03T08:56:52;5.40;;;1.20;;
22007;SDS011;11168;56.976;24.168;2023-04-03T08:59:22;5.40;;;1.35;;
22007;SDS011;11168;56.976;24.168;2023-04-03T09:01:52;3.22;;;1.02;;
22007;SDS011;11168;56.976;24.168;2023-04-03T09:04:20;6.72;;;1.63;;
22007;SDS011;11168;56.976;24.168;2023-04-03T09:06:52;6.88;;;2.17;;
22007;SDS011;11168;56.976;24.168;2023-04-03T09:09:31;5.88;;;1.48;;
22007;SDS011;11168;56.976;24.168;2023-04-03T09:14:36;4.00;;;1.50;;
22007;SDS011;11168;56.976;24.168;2023-04-03T09:17:16;3.55;;;1.55;;
22007;SDS011;11168;56.976;24.168;2023-04-03T09:22:21;6.47;;;1.90;;
22007;SDS011;11168;56.976;24.168;2023-04-03T09:24:54;5.18;;;1.70;;
22007;SDS011;11168;56.976;24.168;2023-04-03T09:27:23;4.40;;;1.15;;
22007;SDS011;11168;56.976;24.168;2023-04-03T09:29:54;1.58;;;0.85;;
22007;SDS011;11168;56.976;24.168;2023-04-03T09:32:26;7.82;;;1.20;;
22007;SDS011;11168;56.976;24.168;2023-04-03T09:34:55;4.63;;;1.10;;
22007;SDS011;11168;56.976;24.168;2023-04-03T09:37:34;5.82;;;1.50;;
22007;SDS011;11168;56.976;24.168;2023-04-03T09:40:05;3.35;;;1.10;;
22007;SDS011;11168;56.976;24.168;2023-04-03T09:42:34;5.22;;;1.40;;
22007;SDS011;11168;56.976;24.168;2023-04-03T09:45:24;3.22;;;1.23;;
22007;SDS011;11168;56.976;24.168;2023-04-03T09:53:39;2.88;;;1.10;;
22007;SDS011;11168;56.976;24.168;2023-04-03T09:58:44;4.25;;;1.30;;
22007;SDS011;11168;56.976;24.168;2023-04-03T10:04:02;4.53;;;1.63;;
22007;SDS011;11168;56.976;24.168;2023-04-03T10:06:31;2.97;;;1.70;;
22007;SDS011;11168;56.976;24.168;2023-04-03T10:09:20;8.07;;;3.00;;
22007;SDS011;11168;56.976;24.168;2023-04-03T10:14:33;3.78;;;1.80;;
22007;SDS011;11168;56.976;24.168;2023-04-03T10:19:42;2.75;;;1.10;;
22007;SDS011;11168;56.976;24.168;2023-04-03T10:22:20;6.85;;;1.50;;
22007;SDS011;11168;56.976;24.168;2023-04-03T10:27:32;3.67;;;1.20;;
22007;SDS011;11168;56.976;24.168;2023-04-03T10:38:21;2.25;;;1.00;;
22007;SDS011;11168;56.976;24.168;2023-04-03T10:43:32;4.10;;;0.90;;
22007;SDS011;11168;56.976;24.168;2023-04-03T10:53:49;2.17;;;1.02;;
22007;SDS011;11168;56.976;24.168;2023-04-03T10:56:20;1.88;;;0.80;;
22007;SDS011;11168;56.976;24.168;2023-04-03T10:58:49;4.15;;;1.08;;
22007;SDS011;11168;56.976;24.168;2023-04-03T11:01:19;12.02;;;2.05;;
22007;SDS011;11168;56.976;24.168;2023-04-03T11:03:49;4.60;;;1.00;;
22007;SDS011;11168;56.976;24.168;2023-04-03T11:06:19;2.20;;;0.95;;
22007;SDS011;11168;56.976;24.168;2023-04-03T11:08:50;4.15;;;1.48;;
22007;SDS011;11168;56.976;24.168;2023-04-03T11:11:22;6.88;;;1.40;;
22007;SDS011;11168;56.976;24.168;2023-04-03T11:13:57;3.30;;;1.30;;
22007;SDS011;11168;56.976;24.168;2023-04-03T11:16:28;5.90;;;0.80;;
22007;SDS011;11168;56.976;24.168;2023-04-03T11:19:20;6.63;;;1.00;;
22007;SDS011;11168;56.976;24.168;2023-04-03T11:21:56;9.02;;;1.17;;
22007;SDS011;11168;56.976;24.168;2023-04-03T11:24:25;3.50;;;1.00;;
22007;SDS011;11168;56.976;24.168;2023-04-03T11:26:55;3.58;;;0.88;;
22007;SDS011;11168;56.976;24.168;2023-04-03T11:29:24;7.28;;;1.00;;
22007;SDS011;11168;56.976;24.168;2023-04-03T11:34:49;5.47;;;0.80;;
22007;SDS011;11168;56.976;24.168;2023-04-03T11:37:21;5.15;;;1.10;;
22007;SDS011;11168;56.976;24.168;2023-04-03T11:39:57;2.05;;;1.00;;
22007;SDS011;11168;56.976;24.168;2023-04-03T11:42:29;7.72;;;1.27;;
22007;SDS011;11168;56.976;24.168;2023-04-03T11:50:48;2.88;;;0.88;;
22007;SDS011;11168;56.976;24.168;2023-04-03T11:53:38;4.18;;;1.02;;
22007;SDS011;11168;56.976;24.168;2023-04-03T12:04:15;4.80;;;1.00;;
22007;SDS011;11168;56.976;24.168;2023-04-03T12:06:49;2.95;;;0.93;;
22007;SDS011;11168;56.976;24.168;2023-04-03T12:11:51;2.30;;;0.93;;
22007;SDS011;11168;56.976;24.168;2023-04-03T12:14:19;6.90;;;1.10;;
22007;SDS011;11168;56.976;24.168;2023-04-03T12:16:48;3.75;;;0.82;;
22007;SDS011;11168;56.976;24.168;2023-04-03T12:19:30;3.20;;;1.00;;
22007;SDS011;11168;56.976;24.168;2023-04-03T12:22:09;3.42;;;1.10;;
22007;SDS011;11168;56.976;24.168;2023-04-03T12:24:37;1.52;;;1.17;;
22007;SDS011;11168;56.976;24.168;2023-04-03T12:29:55;3.15;;;0.90;;
22007;SDS011;11168;56.976;24.168;2023-04-03T12:37:40;3.30;;;0.80;;
22007;SDS011;11168;56.976;24.168;2023-04-03T12:45:20;5.35;;;0.80;;
22007;SDS011;11168;56.976;24.168;2023-04-03T12:47:48;4.22;;;1.05;;
22007;SDS011;11168;56.976;24.168;2023-04-03T12:50:24;5.25;;;1.52;;
22007;SDS011;11168;56.976;24.168;2023-04-03T12:53:35;3.47;;;1.40;;
22007;SDS011;11168;56.976;24.168;2023-04-03T12:55:43;4.95;;;1.30;;
22007;SDS011;11168;56.976;24.168;2023-04-03T12:58:21;3.05;;;1.05;;
22007;SDS011;11168;56.976;24.168;2023-04-03T13:01:00;3.72;;;1.10;;
22007;SDS011;11168;56.976;24.168;2023-04-03T13:03:28;3.65;;;0.95;;
22007;SDS011;11168;56.976;24.168;2023-04-03T13:05:57;5.40;;;0.90;;
22007;SDS011;11168;56.976;24.168;2023-04-03T13:08:25;4.95;;;1.13;;
22007;SDS011;11168;56.976;24.168;2023-04-03T13:10:58;2.05;;;0.90;;
22007;SDS011;11168;56.976;24.168;2023-04-03T13:13:27;2.75;;;1.00;;
22007;SDS011;11168;56.976;24.168;2023-04-03T13:15:54;8.38;;;1.80;;
22007;SDS011;11168;56.976;24.168;2023-04-03T13:18:23;4.20;;;1.05;;
22007;SDS011;11168;56.976;24.168;2023-04-03T13:20:51;4.53;;;1.20;;
22007;SDS011;11168;56.976;24.168;2023-04-03T13:23:19;2.05;;;0.68;;
22007;SDS011;11168;56.976;24.168;2023-04-03T13:25:47;4.95;;;1.38;;
22007;SDS011;11168;56.976;24.168;2023-04-03T13:28:20;1.90;;;0.80;;
22007;SDS011;11168;56.976;24.168;2023-04-03T13:31:23;5.32;;;1.10;;
22007;SDS011;11168;56.976;24.168;2023-04-03T13:36:24;4.22;;;0.98;;
22007;SDS011;11168;56.976;24.168;2023-04-03T13:41:31;4.55;;;1.55;;
22007;SDS011;11168;56.976;24.168;2023-04-03T13:44:14;4.25;;;1.65;;
22007;SDS011;11168;56.976;24.168;2023-04-03T13:46:41;4.15;;;1.50;;
22007;SDS011;11168;56.976;24.168;2023-04-03T13:49:19;3.85;;;1.30;;
22007;SDS011;11168;56.976;24.168;2023-04-03T13:51:47;5.63;;;1.38;;
22007;SDS011;11168;56.976;24.168;2023-04-03T13:54:32;5.57;;;1.48;;
22007;SDS011;11168;56.976;24.168;2023-04-03T13:57:14;5.57;;;1.30;;
22007;SDS011;11168;56.976;24.168;2023-04-03T13:59:42;6.10;;;1.35;;
22007;SDS011;11168;56.976;24.168;2023-04-03T14:02:13;3.33;;;1.33;;
22007;SDS011;11168;56.976;24.168;2023-04-03T14:07:09;4.60;;;1.30;;
22007;SDS011;11168;56.976;24.168;2023-04-03T14:09:41;3.03;;;1.00;;
22007;SDS011;11168;56.976;24.168;2023-04-03T14:12:14;1.77;;;0.88;;
22007;SDS011;11168;56.976;24.168;2023-04-03T14:14:57;8.85;;;1.50;;
22007;SDS011;11168;56.976;24.168;2023-04-03T14:17:36;3.65;;;1.20;;
22007;SDS011;11168;56.976;24.168;2023-04-03T14:20:04;4.60;;;1.52;;
22007;SDS011;11168;56.976;24.168;2023-04-03T14:22:32;1.55;;;1.05;;
22007;SDS011;11168;56.976;24.168;2023-04-03T14:25:01;6.10;;;1.45;;
22007;SDS011;11168;56.976;24.168;2023-04-03T14:27:39;4.30;;;1.27;;
22007;SDS011;11168;56.976;24.168;2023-04-03T14:30:18;7.00;;;1.35;;
22007;SDS011;11168;56.976;24.168;2023-04-03T14:33:21;4.68;;;1.25;;
22007;SDS011;11168;56.976;24.168;2023-04-03T14:35:50;4.82;;;1.30;;
22007;SDS011;11168;56.976;24.168;2023-04-03T14:38:24;7.43;;;1.65;;
22007;SDS011;11168;56.976;24.168;2023-04-03T14:40:52;5.95;;;1.52;;
22007;SDS011;11168;56.976;24.168;2023-04-03T14:43:29;7.18;;;1.30;;
22007;SDS011;11168;56.976;24.168;2023-04-03T14:46:04;5.57;;;1.40;;
22007;SDS011;11168;56.976;24.168;2023-04-03T14:48:32;2.15;;;1.17;;
22007;SDS011;11168;56.976;24.168;2023-04-03T14:50:59;3.70;;;1.58;;
22007;SDS011;11168;56.976;24.168;2023-04-03T14:53:31;5.28;;;1.45;;
22007;SDS011;11168;56.976;24.168;2023-04-03T14:56:01;4.22;;;1.10;;
22007;SDS011;11168;56.976;24.168;2023-04-03T14:58:29;6.28;;;1.45;;
22007;SDS011;11168;56.976;24.168;2023-04-03T15:00:58;5.63;;;1.55;;
22007;SDS011;11168;56.976;24.168;2023-04-03T15:03:25;3.42;;;1.40;;
22007;SDS011;11168;56.976;24.168;2023-04-03T15:05:53;5.05;;;1.50;;
22007;SDS011;11168;56.976;24.168;2023-04-03T15:08:22;6.10;;;2.15;;
22007;SDS011;11168;56.976;24.168;2023-04-03T15:10:50;8.45;;;2.05;;
22007;SDS011;11168;56.976;24.168;2023-04-03T15:13:19;7.97;;;2.20;;
22007;SDS011;11168;56.976;24.168;2023-04-03T15:15:46;6.53;;;2.40;;
22007;SDS011;11168;56.976;24.168;2023-04-03T15:18:24;5.13;;;2.42;;
22007;SDS011;11168;56.976;24.168;2023-04-03T15:20:56;6.80;;;2.70;;
22007;SDS011;11168;56.976;24.168;2023-04-03T15:23:23;8.40;;;3.15;;
22007;SDS011;11168;56.976;24.168;2023-04-03T15:25:52;6.38;;;2.33;;
22007;SDS011;11168;56.976;24.168;2023-04-03T15:30:57;3.90;;;2.90;;
22007;SDS011;11168;56.976;24.168;2023-04-03T15:33:25;12.38;;;4.28;;
22007;SDS011;11168;56.976;24.168;2023-04-03T15:35:52;6.72;;;2.70;;
22007;SDS011;11168;56.976;24.168;2023-04-03T15:38:32;7.57;;;3.22;;
22007;SDS011;11168;56.976;24.168;2023-04-03T15:40:59;10.40;;;3.75;;
22007;SDS011;11168;56.976;24.168;2023-04-03T15:43:26;11.15;;;3.38;;
22007;SDS011;11168;56.976;24.168;2023-04-03T15:45:55;6.38;;;3.15;;
22007;SDS011;11168;56.976;24.168;2023-04-03T15:48:23;8.45;;;3.20;;
22007;SDS011;11168;56.976;24.168;2023-04-03T15:50:51;6.00;;;2.03;;
22007;SDS011;11168;56.976;24.168;2023-04-03T15:53:18;11.70;;;2.67;;
22007;SDS011;11168;56.976;24.168;2023-04-03T15:55:46;7.43;;;2.55;;
22007;SDS011;11168;56.976;24.168;2023-04-03T15:58:13;9.57;;;2.95;;
22007;SDS011;11168;56.976;24.168;2023-04-03T16:00:41;5.70;;;2.35;;
22007;SDS011;11168;56.976;24.168;2023-04-03T16:03:10;8.23;;;3.00;;
22007;SDS011;11168;56.976;24.168;2023-04-03T16:05:38;8.47;;;2.97;;
22007;SDS011;11168;56.976;24.168;2023-04-03T16:08:06;5.57;;;2.28;;
22007;SDS011;11168;56.976;24.168;2023-04-03T16:10:35;6.07;;;2.17;;
22007;SDS011;11168;56.976;24.168;2023-04-03T16:13:03;5.70;;;2.33;;
22007;SDS011;11168;56.976;24.168;2023-04-03T16:15:31;6.63;;;2.83;;
22007;SDS011;11168;56.976;24.168;2023-04-03T16:17:58;7.05;;;2.55;;
22007;SDS011;11168;56.976;24.168;2023-04-03T16:20:26;9.23;;;2.55;;
22007;SDS011;11168;56.976;24.168;2023-04-03T16:22:54;5.28;;;2.70;;